Time;durP1;ratioP1;P1;durP2;ratioP2;P2;SDS_P1;SDS_P2;PMS_P1;PMS_P2;Temp;Humidity;BMP_temperature;BMP_pressure;BME280_temperature;BME280_humidity;BME280_pressure;Samples;Min_cycle;Max_cycle;Signal;HPM_P1;HPM_P2
2023/10/01 00:01:44;;;;;;;2.30;1.60;;;16.80;99.90;;;;;;5070226;28;20029;-77
2023/10/01 00:04:11;;;;;;;3.33;1.42;;;16.80;99.90;;;;;;5070115;28;20082;-77
2023/10/01 00:06:37;;;;;;;5.68;1.60;;;16.80;99.90;;;;;;5052647;28;20060;-76
2023/10/01 00:09:07;;;;;;;4.85;1.73;;;16.80;99.90;;;;;;5070294;28;20040;-77
2023/10/01 00:11:39;;;;;;;3.60;1.75;;;16.90;99.90;;;;;;5070297;28;20437;-77
2023/10/01 00:14:08;;;;;;;5.90;2.10;;;16.90;99.90;;;;;;5070006;28;20028;-77
2023/10/01 00:16:37;;;;;;;4.30;1.95;;;16.90;99.90;;;;;;5070882;28;20056;-78
2023/10/01 00:19:03;;;;;;;2.97;1.70;;;16.90;99.90;;;;;;5069762;28;20039;-78
2023/10/01 00:21:29;;;;;;;6.18;2.28;;;16.90;99.90;;;;;;5070633;28;20046;-78
2023/10/01 00:23:56;;;;;;;4.38;2.30;;;16.90;99.90;;;;;;5051763;28;20526;-79
2023/10/01 00:26:23;;;;;;;5.75;2.05;;;16.80;99.90;;;;;;5052010;28;20375;-77
2023/10/01 00:28:51;;;;;;;4.93;1.90;;;16.80;99.90;;;;;;5074197;28;20028;-77
2023/10/01 00:31:18;;;;;;;5.22;2.13;;;16.70;99.90;;;;;;5073506;28;20455;-78
2023/10/01 00:33:47;;;;;;;2.53;1.80;;;16.70;99.90;;;;;;5055972;28;20035;-77
2023/10/01 00:36:13;;;;;;;2.78;1.73;;;16.80;99.90;;;;;;5055483;28;20094;-78
2023/10/01 00:38:39;;;;;;;5.70;2.00;;;16.80;99.90;;;;;;5074263;28;20039;-77
2023/10/01 00:41:07;;;;;;;3.22;1.50;;;16.70;99.90;;;;;;5072958;28;20100;-78
2023/10/01 00:43:33;;;;;;;4.50;2.13;;;16.70;99.90;;;;;;5063243;28;20039;-78
2023/10/01 00:45:59;;;;;;;4.65;2.17;;;16.70;99.90;;;;;;5054012;28;20029;-78
2023/10/01 00:48:25;;;;;;;5.22;2.13;;;16.70;99.90;;;;;;5054102;28;20045;-78
2023/10/01 00:50:54;;;;;;;4.40;1.85;;;16.60;99.90;;;;;;5053673;28;20021;-78
2023/10/01 00:53:20;;;;;;;3.13;1.90;;;16.60;99.90;;;;;;5053010;28;20360;-78
2023/10/01 00:55:45;;;;;;;4.32;1.77;;;16.60;99.90;;;;;;5053695;28;20029;-76
2023/10/01 00:58:11;;;;;;;3.13;1.77;;;16.60;99.90;;;;;;5053022;28;20029;-78
2023/10/01 01:00:37;;;;;;;5.07;1.90;;;16.60;99.90;;;;;;5053349;28;20025;-77
2023/10/01 01:03:18;;;;;;;3.50;1.60;;;16.50;99.90;;;;;;5052677;28;20135;-77
2023/10/01 01:08:33;;;;;;;3.28;1.77;;;16.50;99.90;;;;;;5053320;28;20331;-76
2023/10/01 01:11:03;;;;;;;4.68;1.90;;;16.60;99.90;;;;;;5052868;28;20036;-77
2023/10/01 01:13:30;;;;;;;4.90;1.80;;;16.60;99.90;;;;;;5053341;28;20021;-76
2023/10/01 01:15:57;;;;;;;5.38;1.92;;;16.60;99.90;;;;;;5053140;28;20051;-76
2023/10/01 01:18:26;;;;;;;3.45;1.80;;;16.60;99.90;;;;;;5052766;28;20041;-76
2023/10/01 01:21:09;;;;;;;4.15;1.98;;;16.60;99.90;;;;;;5053012;28;20110;-76
2023/10/01 01:23:35;;;;;;;4.97;2.25;;;16.60;99.90;;;;;;5053393;28;20017;-76
2023/10/01 01:26:02;;;;;;;4.20;2.38;;;16.60;99.90;;;;;;5052586;28;20029;-78
2023/10/01 01:28:30;;;;;;;6.95;2.30;;;16.60;99.90;;;;;;5052698;28;20041;-77
2023/10/01 01:31:00;;;;;;;5.10;1.83;;;16.60;99.90;;;;;;5053209;28;20025;-77
2023/10/01 01:33:32;;;;;;;2.75;1.60;;;16.60;99.90;;;;;;5052644;28;20029;-77
2023/10/01 01:35:59;;;;;;;3.63;2.37;;;16.60;99.90;;;;;;5053373;28;20444;-78
2023/10/01 01:38:25;;;;;;;5.40;2.15;;;16.50;99.90;;;;;;5051213;28;20139;-78
2023/10/01 01:40:52;;;;;;;4.72;2.38;;;16.50;99.90;;;;;;5052857;28;20021;-78
2023/10/01 01:43:22;;;;;;;5.28;2.15;;;16.50;99.90;;;;;;5052063;28;20037;-77
2023/10/01 01:46:00;;;;;;;4.70;2.03;;;16.50;99.90;;;;;;5052723;28;20099;-77
2023/10/01 01:50:57;;;;;;;6.00;1.90;;;16.50;99.90;;;;;;5052335;28;20375;-77
2023/10/01 01:53:26;;;;;;;6.72;1.80;;;16.40;99.90;;;;;;5051800;28;20031;-77
2023/10/01 01:55:56;;;;;;;5.45;1.88;;;16.40;99.90;;;;;;5034475;28;20032;-78
2023/10/01 01:58:26;;;;;;;4.15;1.90;;;16.40;99.90;;;;;;5051910;28;20033;-77
2023/10/01 02:01:08;;;;;;;3.72;1.95;;;16.40;99.90;;;;;;5052479;28;20033;-77
2023/10/01 02:03:46;;;;;;;5.03;2.35;;;16.40;99.90;;;;;;5052364;28;20040;-77
2023/10/01 02:06:13;;;;;;;4.65;1.70;;;16.30;99.90;;;;;;5051637;28;20116;-78
2023/10/01 02:11:16;;;;;;;4.32;1.95;;;16.30;99.90;;;;;;5051888;28;20345;-78
2023/10/01 02:13:45;;;;;;;4.13;1.85;;;16.30;99.90;;;;;;5052278;28;20025;-78
2023/10/01 02:19:18;;;;;;;5.35;2.20;;;16.20;99.90;;;;;;5042093;28;20049;-79
2023/10/01 02:22:00;;;;;;;3.60;2.45;;;16.30;99.90;;;;;;5052026;28;20121;-78
2023/10/01 02:24:44;;;;;;;3.70;2.05;;;16.30;99.90;;;;;;5052099;28;20064;-78
2023/10/01 02:27:28;;;;;;;4.53;2.15;;;16.30;99.90;;;;;;5051345;28;20032;-79
2023/10/01 02:30:14;;;;;;;5.18;2.20;;;16.30;99.90;;;;;;5052256;28;20079;-79
2023/10/01 02:32:49;;;;;;;4.93;2.35;;;16.20;99.90;;;;;;5051599;28;20025;-78
2023/10/01 02:35:36;;;;;;;4.25;2.00;;;16.20;99.90;;;;;;5051406;28;20109;-78
2023/10/01 02:38:06;;;;;;;4.10;2.00;;;16.20;99.90;;;;;;5051910;28;20044;-78
2023/10/01 02:40:37;;;;;;;5.30;2.05;;;16.10;99.90;;;;;;5051616;28;20475;-78
2023/10/01 02:43:09;;;;;;;4.40;2.05;;;16.10;99.90;;;;;;5051495;28;20029;-78
2023/10/01 02:45:41;;;;;;;4.53;2.20;;;16.10;99.90;;;;;;5051522;28;20037;-78
2023/10/01 02:48:13;;;;;;;5.10;2.10;;;16.10;99.90;;;;;;5050588;28;20064;-79
2023/10/01 02:50:40;;;;;;;4.13;1.90;;;16.10;99.90;;;;;;5051175;28;20029;-78
2023/10/01 02:53:05;;;;;;;4.05;2.30;;;16.10;99.90;;;;;;5051111;28;20021;-79
2023/10/01 02:55:31;;;;;;;4.20;2.00;;;16.00;99.90;;;;;;5051098;28;20044;-79
2023/10/01 02:58:03;;;;;;;4.65;1.92;;;16.00;99.90;;;;;;5050881;28;20033;-79
2023/10/01 03:00:31;;;;;;;3.65;1.88;;;15.90;99.90;;;;;;5050411;28;20089;-79
2023/10/01 03:02:59;;;;;;;3.63;1.90;;;15.90;99.90;;;;;;5051236;28;20028;-78
2023/10/01 03:05:36;;;;;;;3.78;2.00;;;15.90;99.90;;;;;;5050485;28;20396;-79
2023/10/01 03:08:03;;;;;;;2.80;1.77;;;15.90;99.90;;;;;;5051318;28;20028;-79
2023/10/01 03:10:31;;;;;;;4.63;1.73;;;16.00;99.90;;;;;;5050594;28;20053;-79
2023/10/01 03:13:14;;;;;;;3.38;1.80;;;16.00;99.90;;;;;;5033134;28;20344;-79
2023/10/01 03:15:41;;;;;;;;;;;15.90;99.90;;;;;;5035119;28;20361;-79
2023/10/01 03:26:00;;;;;;;2.85;1.85;;;15.80;99.90;;;;;;5070936;28;20355;-78
2023/10/01 03:31:18;;;;;;;3.33;1.85;;;15.80;99.90;;;;;;5070683;28;20142;-79
2023/10/01 03:33:45;;;;;;;4.95;2.00;;;15.70;99.90;;;;;;5052805;28;20112;-78
2023/10/01 03:36:12;;;;;;;4.75;2.17;;;15.60;99.90;;;;;;5070265;28;20024;-79
2023/10/01 03:38:40;;;;;;;5.72;2.28;;;15.70;99.90;;;;;;5070978;28;20025;-79
2023/10/01 03:41:08;;;;;;;4.35;2.15;;;15.70;99.90;;;;;;5070817;28;20056;-78
2023/10/01 03:43:35;;;;;;;4.55;1.85;;;15.60;99.90;;;;;;5070461;28;20033;-79
2023/10/01 03:48:58;;;;;;;3.55;2.15;;;15.70;99.90;;;;;;5070431;28;20079;-78
2023/10/01 03:51:29;;;;;;;3.65;2.10;;;15.70;99.90;;;;;;5069837;28;20039;-79
2023/10/01 03:53:59;;;;;;;5.20;2.10;;;15.70;99.90;;;;;;5070611;28;20086;-79
2023/10/01 03:56:29;;;;;;;4.72;2.05;;;15.70;99.90;;;;;;5070008;28;20024;-79
2023/10/01 03:58:55;;;;;;;5.07;2.40;;;15.70;99.90;;;;;;5070491;28;20028;-78
2023/10/01 04:01:58;;;;;;;5.10;2.35;;;15.60;99.90;;;;;;5069390;28;20025;-79
2023/10/01 04:04:21;;;;;;;3.50;2.00;;;15.70;99.90;;;;;;5069698;28;20041;-79
2023/10/01 04:06:46;;;;;;;4.93;2.33;;;15.70;99.90;;;;;;5070233;28;20108;-78
2023/10/01 04:09:18;;;;;;;3.05;2.15;;;15.70;99.90;;;;;;5069533;28;20339;-79
2023/10/01 04:11:51;;;;;;;4.18;1.92;;;15.70;99.90;;;;;;5070571;28;20078;-77
2023/10/01 04:14:17;;;;;;;4.65;2.13;;;15.70;99.90;;;;;;5069806;28;20036;-78
2023/10/01 04:16:46;;;;;;;4.18;2.50;;;15.80;99.90;;;;;;5070755;28;20108;-77
2023/10/01 04:19:24;;;;;;;2.88;1.95;;;15.70;99.90;;;;;;5069784;28;20029;-79
2023/10/01 04:21:53;;;;;;;4.82;1.90;;;15.70;99.90;;;;;;5070014;28;20020;-77
2023/10/01 04:24:21;;;;;;;4.88;2.45;;;15.80;99.90;;;;;;5069644;28;20407;-77
2023/10/01 04:26:47;;;;;;;3.88;2.33;;;15.80;99.90;;;;;;5070006;28;20044;-78
2023/10/01 04:29:16;;;;;;;6.32;2.60;;;15.80;99.90;;;;;;5069592;28;20029;-78
2023/10/01 04:31:42;;;;;;;4.97;2.45;;;15.80;99.90;;;;;;5070739;28;20446;-78
2023/10/01 04:34:14;;;;;;;4.28;2.38;;;15.70;99.90;;;;;;5070135;28;20088;-77
2023/10/01 04:36:43;;;;;;;4.72;2.55;;;15.80;99.90;;;;;;5070318;28;20032;-77
2023/10/01 04:39:09;;;;;;;3.80;2.42;;;15.70;99.90;;;;;;5070213;28;20025;-78
2023/10/01 04:41:35;;;;;;;4.63;2.42;;;15.80;99.90;;;;;;5069494;28;20111;-78
2023/10/01 04:44:06;;;;;;;5.22;2.33;;;15.80;99.90;;;;;;5070043;28;20096;-78
2023/10/01 04:46:37;;;;;;;6.13;2.72;;;15.80;99.90;;;;;;5069412;28;20028;-78
2023/10/01 04:49:26;;;;;;;3.92;1.92;;;15.80;99.90;;;;;;5070066;28;20047;-78
2023/10/01 04:52:10;;;;;;;4.15;2.35;;;15.80;99.90;;;;;;5070205;28;20036;-78
2023/10/01 04:54:37;;;;;;;4.82;2.78;;;15.80;99.90;;;;;;5069640;28;20021;-77
2023/10/01 04:57:03;;;;;;;6.30;3.13;;;15.80;99.90;;;;;;5070052;28;20450;-78
2023/10/01 04:59:29;;;;;;;6.90;2.40;;;15.80;99.90;;;;;;5069493;28;20157;-78
2023/10/01 05:01:58;;;;;;;5.40;2.55;;;15.80;99.90;;;;;;5069872;28;20447;-78
2023/10/01 05:04:26;;;;;;;4.25;2.35;;;15.80;99.90;;;;;;5051533;28;20028;-78
2023/10/01 05:07:04;;;;;;;6.85;3.05;;;15.90;99.90;;;;;;5069638;28;20108;-77
2023/10/01 05:09:33;;;;;;;6.30;2.78;;;16.00;99.90;;;;;;5069211;28;20031;-78
2023/10/01 05:12:01;;;;;;;4.97;2.85;;;16.00;99.90;;;;;;5070123;28;20550;-78
2023/10/01 05:14:28;;;;;;;5.57;2.65;;;16.00;99.90;;;;;;5071043;28;20093;-78
2023/10/01 05:16:54;;;;;;;6.82;2.75;;;16.00;99.90;;;;;;5073512;28;20081;-78
2023/10/01 05:19:23;;;;;;;10.80;3.40;;;16.00;99.90;;;;;;5073139;28;20032;-78
2023/10/01 05:21:56;;;;;;;5.30;2.30;;;16.00;99.90;;;;;;5073630;28;20028;-78
2023/10/01 05:24:39;;;;;;;;;;;16.00;99.90;;;;;;5055377;28;20032;-78
2023/10/01 05:27:18;;;;;;;4.70;2.60;;;16.00;99.90;;;;;;5073723;28;19955;-78
2023/10/01 05:29:45;;;;;;;8.20;3.20;;;16.00;99.90;;;;;;5056040;28;20114;-78
2023/10/01 05:32:11;;;;;;;8.18;3.38;;;16.00;99.90;;;;;;5073141;28;20107;-78
2023/10/01 05:34:46;;;;;;;8.90;3.40;;;16.00;99.90;;;;;;5072683;28;20382;-78
2023/10/01 05:37:16;;;;;;;5.85;3.30;;;16.00;99.90;;;;;;5073157;28;20090;-78
2023/10/01 05:40:00;;;;;;;7.80;3.15;;;16.00;99.90;;;;;;5073037;28;20119;-76
2023/10/01 05:42:28;;;;;;;7.70;3.55;;;16.00;99.90;;;;;;5072636;28;20059;-77
2023/10/01 05:44:59;;;;;;;8.82;3.85;;;16.00;99.90;;;;;;5072904;28;20082;-77
2023/10/01 05:47:41;;;;;;;6.38;2.85;;;16.00;99.90;;;;;;5071910;28;20052;-77
2023/10/01 05:50:09;;;;;;;7.80;3.37;;;16.10;99.90;;;;;;5072641;28;20062;-77
2023/10/01 05:52:40;;;;;;;6.68;3.30;;;16.00;99.90;;;;;;5072245;28;20264;-79
2023/10/01 05:55:08;;;;;;;8.65;3.67;;;16.10;99.90;;;;;;5054745;28;20101;-78
2023/10/01 05:57:34;;;;;;;7.35;3.55;;;16.10;99.90;;;;;;5071846;28;20033;-78
2023/10/01 06:00:00;;;;;;;10.35;4.13;;;16.00;99.90;;;;;;5054612;28;20036;-78
2023/10/01 06:07:56;;;;;;;6.00;3.50;;;16.00;99.90;;;;;;5072652;28;20036;-78
2023/10/01 06:10:35;;;;;;;6.72;3.28;;;16.00;99.90;;;;;;5053983;28;20024;-78
2023/10/01 06:13:06;;;;;;;8.25;3.67;;;16.10;99.90;;;;;;5072239;28;20052;-78
2023/10/01 06:15:33;;;;;;;5.90;3.30;;;16.00;99.90;;;;;;5072024;28;20024;-79
2023/10/01 06:18:01;;;;;;;9.27;3.45;;;16.00;99.90;;;;;;5071854;28;20032;-78
2023/10/01 06:20:33;;;;;;;8.98;3.50;;;16.10;99.90;;;;;;5071369;28;20176;-78
2023/10/01 06:22:59;;;;;;;7.93;3.47;;;16.00;99.90;;;;;;5071947;28;20024;-78
2023/10/01 06:25:47;;;;;;;8.93;3.85;;;16.00;99.90;;;;;;5070871;28;20029;-79
2023/10/01 06:28:20;;;;;;;6.95;3.72;;;16.00;99.90;;;;;;5071956;28;20051;-79
2023/10/01 06:30:46;;;;;;;7.20;3.20;;;16.00;99.90;;;;;;5071984;28;20486;-79
2023/10/01 06:33:36;;;;;;;8.20;3.30;;;15.90;99.90;;;;;;5053848;28;20530;-78
2023/10/01 06:36:15;;;;;;;6.43;3.85;;;15.80;99.90;;;;;;5071046;28;20045;-78
2023/10/01 06:38:47;;;;;;;9.93;4.35;;;15.80;99.90;;;;;;5071013;28;20033;-78
2023/10/01 06:41:19;;;;;;;7.57;3.70;;;15.80;99.90;;;;;;5053873;28;20413;-78
2023/10/01 06:43:48;;;;;;;9.75;3.72;;;15.70;99.90;;;;;;5071340;28;20025;-78
2023/10/01 06:46:30;;;;;;;12.30;3.88;;;15.60;99.90;;;;;;5071463;28;20500;-77
2023/10/01 06:48:58;;;;;;;6.47;3.55;;;15.60;99.90;;;;;;5071547;28;20135;-78
2023/10/01 06:51:26;;;;;;;7.38;3.75;;;15.60;99.90;;;;;;5052977;28;20048;-79
2023/10/01 06:53:58;;;;;;;7.75;3.88;;;15.60;99.90;;;;;;5071290;28;20528;-78
2023/10/01 06:56:30;;;;;;;7.07;3.72;;;15.60;99.90;;;;;;5053973;28;20082;-79
2023/10/01 07:01:34;;;;;;;10.50;4.47;;;15.50;99.90;;;;;;5070511;28;20032;-77
2023/10/01 07:04:02;;;;;;;9.63;4.03;;;15.50;99.90;;;;;;5071672;28;20025;-77
2023/10/01 07:06:28;;;;;;;8.45;4.43;;;15.50;99.90;;;;;;5070980;28;20085;-77
2023/10/01 07:08:55;;;;;;;7.85;4.03;;;15.50;99.90;;;;;;5071124;28;20173;-76
2023/10/01 07:11:21;;;;;;;8.73;3.95;;;15.50;99.90;;;;;;5053466;28;20527;-77
2023/10/01 07:13:52;;;;;;;9.95;4.10;;;15.50;99.90;;;;;;5070587;28;20036;-77
2023/10/01 07:16:35;;;;;;;8.60;4.00;;;15.50;99.90;;;;;;5071294;28;20047;-77
2023/10/01 07:19:00;;;;;;;;;;;15.60;99.90;;;;;;5071934;28;20495;-77
2023/10/01 07:21:26;;;;;;;8.77;4.10;;;15.70;99.90;;;;;;5070447;28;20062;-77
2023/10/01 07:23:53;;;;;;;10.38;5.22;;;15.80;99.90;;;;;;5071147;28;20017;-77
2023/10/01 07:26:19;;;;;;;12.73;5.38;;;15.80;99.90;;;;;;5070775;28;20111;-78
2023/10/01 07:28:55;;;;;;;9.82;4.65;;;15.90;99.90;;;;;;5070472;28;20033;-77
2023/10/01 07:31:24;;;;;;;9.15;4.25;;;16.00;99.90;;;;;;5070941;28;20459;-78
2023/10/01 07:33:53;;;;;;;10.55;4.75;;;16.10;99.90;;;;;;5070893;28;20056;-78
2023/10/01 07:36:20;;;;;;;10.63;4.78;;;16.10;99.90;;;;;;5070140;28;20411;-77
2023/10/01 07:38:49;;;;;;;9.77;4.30;;;16.20;99.90;;;;;;5070176;28;20024;-77
2023/10/01 07:41:16;;;;;;;9.52;4.00;;;16.30;99.90;;;;;;5052504;28;20025;-77
2023/10/01 07:43:42;;;;;;;11.63;4.60;;;16.30;99.90;;;;;;5070100;28;20039;-78
2023/10/01 07:46:08;;;;;;;12.82;4.65;;;16.40;99.90;;;;;;5070274;28;20036;-78
2023/10/01 07:48:47;;;;;;;9.82;4.50;;;16.40;99.90;;;;;;5069586;28;20509;-78
2023/10/01 07:51:28;;;;;;;12.52;4.82;;;16.50;99.90;;;;;;5070485;28;20044;-77
2023/10/01 07:53:59;;;;;;;9.23;4.10;;;16.60;99.90;;;;;;5070469;28;20029;-77
2023/10/01 07:56:25;;;;;;;8.85;3.85;;;16.60;99.90;;;;;;5069893;28;20568;-80
2023/10/01 07:59:16;;;;;;;12.75;4.72;;;16.70;99.90;;;;;;5070525;28;20021;-77
2023/10/01 08:01:43;;;;;;;9.80;4.63;;;16.70;99.90;;;;;;5069637;28;20075;-77
2023/10/01 08:04:51;;;;;;;9.38;3.92;;;16.80;99.90;;;;;;5070482;28;20035;-78
2023/10/01 08:07:05;;;;;;;10.48;3.90;;;16.80;99.90;;;;;;5069964;28;20115;-78
2023/10/01 08:09:39;;;;;;;10.35;4.32;;;16.90;99.90;;;;;;5069709;28;20398;-78
2023/10/01 08:12:05;;;;;;;8.35;4.18;;;16.90;99.90;;;;;;5070061;28;20032;-77
2023/10/01 08:14:35;;;;;;;8.40;3.67;;;16.90;99.90;;;;;;5069923;28;20486;-78
2023/10/01 08:17:02;;;;;;;9.55;4.18;;;17.00;99.90;;;;;;5070200;28;20069;-78
2023/10/01 08:19:49;;;;;;;8.65;3.88;;;17.00;99.90;;;;;;5069870;28;20085;-81
2023/10/01 08:22:22;;;;;;;10.45;4.25;;;17.10;99.90;;;;;;5070162;28;20036;-76
2023/10/01 08:24:49;;;;;;;12.02;4.53;;;17.20;99.90;;;;;;5069278;28;20422;-76
2023/10/01 08:27:31;;;;;;;9.73;3.90;;;17.20;99.90;;;;;;5070193;28;20112;-77
2023/10/01 08:30:18;;;;;;;13.98;4.82;;;17.40;99.90;;;;;;5070346;28;20032;-77
2023/10/01 08:32:49;;;;;;;11.70;4.82;;;17.40;99.90;;;;;;5069341;28;20037;-77
2023/10/01 08:35:32;;;;;;;7.95;4.32;;;17.50;99.90;;;;;;5070379;28;20024;-76
2023/10/01 08:37:59;;;;;;;12.75;4.88;;;17.50;99.90;;;;;;5070024;28;20024;-76
2023/10/01 08:40:27;;;;;;;11.13;4.50;;;17.60;99.90;;;;;;5070081;28;20441;-76
2023/10/01 08:42:58;;;;;;;11.95;4.65;;;17.60;99.90;;;;;;5069767;28;20025;-76
2023/10/01 08:45:37;;;;;;;8.90;4.60;;;17.60;99.90;;;;;;5069985;28;20072;-76
2023/10/01 08:48:07;;;;;;;10.10;4.40;;;17.70;99.90;;;;;;5071087;28;20044;-76
2023/10/01 08:50:36;;;;;;;11.93;4.50;;;17.80;99.90;;;;;;5073128;28;20028;-77
2023/10/01 08:53:10;;;;;;;9.13;4.03;;;17.80;99.90;;;;;;5073781;28;20047;-76
2023/10/01 08:58:25;;;;;;;9.82;4.28;;;17.90;99.90;;;;;;5073570;28;20048;-77
2023/10/01 09:00:56;;;;;;;10.27;4.55;;;17.80;99.90;;;;;;5073183;28;20489;-77
2023/10/01 09:03:34;;;;;;;12.70;5.30;;;17.80;99.90;;;;;;5073736;28;20085;-77
2023/10/01 09:06:03;;;;;;;12.30;5.68;;;17.90;99.90;;;;;;5073667;28;20043;-78
2023/10/01 09:08:33;;;;;;;13.63;6.13;;;17.90;99.90;;;;;;5072944;28;20111;-80
2023/10/01 09:11:02;;;;;;;12.63;5.20;;;17.90;99.90;;;;;;5073491;28;20063;-77
2023/10/01 09:13:30;;;;;;;14.20;5.70;;;18.00;99.90;;;;;;5072889;28;20017;-78
2023/10/01 09:16:10;;;;;;;11.57;4.80;;;18.10;99.90;;;;;;5073401;28;20024;-77
2023/10/01 09:18:53;;;;;;;13.13;5.35;;;18.10;99.90;;;;;;5072356;28;20036;-78
2023/10/01 09:21:28;;;;;;;11.20;4.82;;;18.20;99.90;;;;;;5072933;28;20056;-78
2023/10/01 09:24:12;;;;;;;16.45;6.47;;;18.20;99.90;;;;;;5073002;28;20074;-77
2023/10/01 09:26:42;;;;;;;15.48;5.22;;;18.30;99.90;;;;;;5072516;28;20459;-77
2023/10/01 09:29:23;;;;;;;15.25;5.80;;;18.30;99.90;;;;;;5073183;28;20131;-76
2023/10/01 09:31:56;;;;;;;11.68;5.32;;;18.20;99.90;;;;;;5072865;28;20466;-77
2023/10/01 09:34:33;;;;;;;12.80;5.47;;;18.20;99.90;;;;;;5072991;28;20025;-77
2023/10/01 09:37:12;;;;;;;12.52;5.82;;;18.20;99.90;;;;;;5072961;28;20103;-77
2023/10/01 09:39:43;;;;;;;11.23;4.93;;;18.30;99.90;;;;;;5072345;28;20028;-77
2023/10/01 09:42:24;;;;;;;15.27;5.55;;;18.40;99.90;;;;;;5072899;28;20035;-76
2023/10/01 09:44:54;;;;;;;14.25;5.57;;;18.40;99.90;;;;;;5072167;28;20033;-77
2023/10/01 09:47:25;;;;;;;15.48;5.30;;;18.50;99.90;;;;;;5072110;28;20578;-77
2023/10/01 09:49:54;;;;;;;16.02;5.85;;;18.40;99.90;;;;;;5071776;28;20033;-77
2023/10/01 09:52:30;;;;;;;13.00;5.45;;;18.40;99.90;;;;;;5054519;28;20043;-76
2023/10/01 09:55:03;;;;;;;12.27;5.75;;;18.30;99.90;;;;;;5071950;28;20060;-77
2023/10/01 09:57:34;;;;;;;13.43;5.35;;;18.30;99.90;;;;;;5072533;28;20086;-77
2023/10/01 10:00:17;;;;;;;16.90;5.50;;;18.30;99.90;;;;;;5071947;28;20059;-77
2023/10/01 10:02:52;;;;;;;12.85;4.85;;;18.30;99.90;;;;;;5071998;28;20032;-76
2023/10/01 10:05:26;;;;;;;12.63;5.03;;;18.30;99.90;;;;;;5072479;28;20032;-76
2023/10/01 10:08:13;;;;;;;12.98;4.95;;;18.30;99.90;;;;;;5071936;28;20086;-76
2023/10/01 10:10:52;;;;;;;15.38;5.38;;;18.30;99.90;;;;;;5053733;28;20127;-76
2023/10/01 10:13:48;;;;;;;10.77;4.53;;;18.30;99.90;;;;;;5072042;28;20025;-77
2023/10/01 10:16:32;;;;;;;12.25;4.75;;;18.20;99.90;;;;;;5072428;28;20024;-76
2023/10/01 10:19:12;;;;;;;10.80;4.57;;;18.20;99.90;;;;;;5071424;28;20359;-76
2023/10/01 10:22:16;;;;;;;15.80;5.35;;;18.20;99.90;;;;;;5071510;28;20028;-76
2023/10/01 10:24:46;;;;;;;12.20;5.30;;;18.20;99.90;;;;;;5070726;28;20467;-77
2023/10/01 10:27:35;;;;;;;10.93;4.95;;;18.20;99.90;;;;;;5072005;28;20093;-77
2023/10/01 10:30:05;;;;;;;16.83;6.13;;;18.30;99.90;;;;;;5056385;28;20235;-78
2023/10/01 10:32:44;;;;;;;15.48;5.53;;;18.50;99.90;;;;;;5054155;28;20024;-76
2023/10/01 10:35:16;;;;;;;16.20;6.07;;;18.70;99.90;;;;;;5055973;28;20036;-76
2023/10/01 10:37:48;;;;;;;10.30;4.85;;;18.80;99.90;;;;;;5071225;28;20462;-78
2023/10/01 10:42:46;;;;;;;17.75;5.53;;;19.00;99.90;;;;;;5071049;28;20055;-76
2023/10/01 10:45:21;;;;;;;12.48;5.10;;;18.90;99.90;;;;;;5071768;28;20073;-77
2023/10/01 10:48:01;;;;;;;14.88;5.95;;;18.80;99.90;;;;;;5071515;28;20044;-77
2023/10/01 10:50:53;;;;;;;15.40;5.72;;;18.60;99.90;;;;;;5071814;28;20029;-77
2023/10/01 10:53:23;;;;;;;12.18;5.07;;;18.50;99.90;;;;;;5061286;28;20040;-76
2023/10/01 10:56:00;;;;;;;12.13;5.72;;;18.40;99.90;;;;;;5071310;28;20025;-77
2023/10/01 10:58:45;;;;;;;11.10;4.60;;;18.30;99.90;;;;;;5071802;28;20387;-77
2023/10/01 11:01:16;;;;;;;14.00;5.47;;;18.20;99.90;;;;;;5071275;28;20024;-77
2023/10/01 11:03:43;;;;;;;17.17;5.88;;;18.30;99.90;;;;;;5071004;28;20021;-79
2023/10/01 11:06:29;;;;;;;15.73;5.00;;;18.20;99.90;;;;;;5053458;28;20390;-76
2023/10/01 11:08:56;;;;;;;12.50;4.25;;;18.20;99.90;;;;;;5070632;28;20035;-77
2023/10/01 11:11:30;;;;;;;13.82;4.35;;;18.10;99.90;;;;;;5071162;28;20050;-77
2023/10/01 11:14:02;;;;;;;11.65;4.90;;;18.00;99.90;;;;;;5070711;28;20036;-77
2023/10/01 11:16:36;;;;;;;14.68;5.10;;;17.90;99.90;;;;;;5070847;28;20387;-77
2023/10/01 11:19:16;;;;;;;13.43;4.43;;;17.80;99.90;;;;;;5070653;28;20124;-77
2023/10/01 11:22:02;;;;;;;15.18;4.90;;;17.80;99.90;;;;;;5070575;28;20025;-78
2023/10/01 11:24:34;;;;;;;14.27;4.90;;;17.90;99.90;;;;;;5070632;28;20459;-76
2023/10/01 11:27:14;;;;;;;11.90;4.90;;;18.00;99.90;;;;;;5070537;28;20051;-77
2023/10/01 11:30:13;;;;;;;14.77;4.60;;;18.10;99.90;;;;;;5070233;28;20048;-78
2023/10/01 11:33:03;;;;;;;13.32;4.90;;;18.10;99.90;;;;;;5063979;28;20040;-80
2023/10/01 11:35:32;;;;;;;19.08;5.78;;;18.10;99.90;;;;;;5070796;28;20052;-77
2023/10/01 11:38:18;;;;;;;14.80;4.90;;;17.90;99.90;;;;;;5069841;28;20642;-78
2023/10/01 11:43:42;;;;;;;13.05;4.47;;;17.90;99.90;;;;;;5070594;28;20391;-77
2023/10/01 11:46:18;;;;;;;11.60;4.50;;;17.90;99.90;;;;;;5070250;28;20040;-78
2023/10/01 11:49:04;;;;;;;15.13;5.25;;;17.90;99.90;;;;;;5070104;28;20044;-79
2023/10/01 11:51:48;;;;;;;13.80;4.78;;;17.90;99.90;;;;;;5054270;28;20468;-77
2023/10/01 11:54:18;;;;;;;14.10;5.30;;;17.90;99.90;;;;;;5070576;28;20399;-78
2023/10/01 11:56:47;;;;;;;11.05;4.22;;;17.90;99.90;;;;;;5069556;28;20140;-78
2023/10/01 11:59:19;;;;;;;11.98;4.18;;;17.90;99.90;;;;;;5069853;28;20542;-77
2023/10/01 12:01:54;;;;;;;12.07;3.83;;;17.80;99.90;;;;;;5069465;28;20092;-77
2023/10/01 12:04:25;;;;;;;13.52;4.28;;;17.90;99.90;;;;;;5070067;28;20029;-77
2023/10/01 12:06:53;;;;;;;11.80;3.88;;;17.90;99.90;;;;;;5069825;28;20123;-77
2023/10/01 12:09:20;;;;;;;14.60;4.22;;;18.00;99.90;;;;;;5069824;28;20034;-77
2023/10/01 12:12:03;;;;;;;10.80;3.72;;;18.00;99.90;;;;;;5068923;28;20109;-77
2023/10/01 12:14:32;;;;;;;10.13;3.92;;;17.90;99.90;;;;;;5054735;28;20127;-77
2023/10/01 12:17:01;;;;;;;14.27;3.88;;;18.00;99.90;;;;;;5069431;28;20054;-77
2023/10/01 12:19:29;;;;;;;12.55;3.80;;;18.10;99.90;;;;;;5069844;28;20063;-78
2023/10/01 12:22:06;;;;;;;10.18;3.80;;;18.10;99.90;;;;;;5069415;28;20033;-77
2023/10/01 12:24:45;;;;;;;10.30;3.72;;;18.20;99.90;;;;;;5073810;28;20439;-77
2023/10/01 12:27:37;;;;;;;11.18;4.35;;;18.20;99.90;;;;;;5056121;28;20402;-77
2023/10/01 12:29:57;;;;;;;10.77;4.15;;;18.20;99.90;;;;;;5072842;28;20036;-77
2023/10/01 12:32:37;;;;;;;12.77;4.13;;;18.30;99.90;;;;;;5055918;28;20032;-77
2023/10/01 12:35:18;;;;;;;13.80;4.45;;;18.40;99.90;;;;;;5073236;28;20069;-78
2023/10/01 12:37:46;;;;;;;11.63;4.32;;;18.50;99.90;;;;;;5073563;28;20024;-80
2023/10/01 12:40:16;;;;;;;15.18;4.85;;;18.50;99.90;;;;;;5074138;28;20483;-78
2023/10/01 12:42:50;;;;;;;13.88;4.10;;;18.60;99.90;;;;;;5073931;28;20118;-77
2023/10/01 12:45:19;;;;;;;11.50;3.58;;;18.70;99.90;;;;;;5073639;28;20025;-78
2023/10/01 12:47:51;;;;;;;11.95;4.18;;;18.80;99.90;;;;;;5073140;28;20056;-80
2023/10/01 12:50:30;;;;;;;12.48;4.10;;;18.80;99.90;;;;;;5073726;28;20401;-78
2023/10/01 12:55:44;;;;;;;14.63;4.45;;;18.80;99.90;;;;;;5073274;28;20044;-77
2023/10/01 12:58:09;;;;;;;13.63;4.05;;;18.90;99.90;;;;;;5072845;28;20514;-77
2023/10/01 13:00:44;;;;;;;9.35;3.65;;;19.00;99.90;;;;;;5073399;28;20025;-76
2023/10/01 13:03:16;;;;;;;10.75;4.03;;;19.10;99.90;;;;;;5073198;28;20471;-76
2023/10/01 13:05:44;;;;;;;13.85;4.50;;;19.20;99.90;;;;;;5073227;28;20029;-76
2023/10/01 13:08:27;;;;;;;11.20;3.58;;;19.40;99.90;;;;;;5073178;28;20140;-77
2023/10/01 13:11:02;;;;;;;10.45;4.10;;;19.50;99.90;;;;;;5072589;28;20158;-77
2023/10/01 13:13:31;;;;;;;15.98;4.03;;;19.50;99.90;;;;;;5073232;28;20029;-76
2023/10/01 13:16:00;;;;;;;15.60;4.53;;;19.60;99.90;;;;;;5072656;28;20036;-77
2023/10/01 13:18:30;;;;;;;9.70;4.00;;;19.50;99.90;;;;;;5073130;28;20020;-77
2023/10/01 13:23:24;;;;;;;17.27;4.53;;;19.20;99.90;;;;;;5073173;28;20032;-76
2023/10/01 13:26:05;;;;;;;14.93;4.47;;;19.10;99.90;;;;;;5072232;28;20033;-76
2023/10/01 13:28:46;;;;;;;15.25;4.50;;;18.90;99.90;;;;;;5054706;28;20036;-76
2023/10/01 13:34:06;;;;;;;12.38;4.03;;;18.70;99.90;;;;;;5071683;28;20029;-78
2023/10/01 13:37:11;;;;;;;11.90;4.32;;;18.60;99.90;;;;;;5072705;28;20025;-77
2023/10/01 14:09:47;;;;;;;12.18;3.80;;;18.50;99.90;;;;;;5072066;28;20056;-77
2023/10/01 14:12:14;;;;;;;10.25;3.15;;;18.60;99.90;;;;;;5071802;28;20060;-76
2023/10/01 14:14:43;;;;;;;14.10;3.45;;;18.60;99.90;;;;;;5071947;28;20331;-77
2023/10/01 14:17:14;;;;;;;11.48;3.72;;;18.70;99.90;;;;;;5071696;28;20095;-77
2023/10/01 14:19:51;;;;;;;12.90;3.63;;;18.70;99.90;;;;;;5072146;28;20135;-77
2023/10/01 14:22:20;;;;;;;8.60;3.28;;;18.70;99.90;;;;;;5071962;28;20120;-76
2023/10/01 14:24:50;;;;;;;9.80;3.58;;;18.70;99.90;;;;;;5072028;28;20458;-77
2023/10/01 14:27:25;;;;;;;8.18;3.40;;;18.80;99.90;;;;;;5071453;28;20036;-77
2023/10/01 14:30:34;;;;;;;13.82;4.07;;;18.80;99.90;;;;;;5071554;28;20416;-79